sensor_id;sensor_type;location;lat;lon;timestamp;pressure;altitude;pressure_sealevel;temperature;humidity
20860;BME280;10590;48.154;11.514;2023-04-30T00:01:38;95855.53;;;11.44;71.23
20860;BME280;10590;48.154;11.514;2023-04-30T00:07:02;95862.78;;;11.35;71.19
20860;BME280;10590;48.154;11.514;2023-04-30T00:12:24;95867.19;;;11.48;70.69
20860;BME280;10590;48.154;11.514;2023-04-30T00:17:46;95862.94;;;11.30;71.61
20860;BME280;10590;48.154;11.514;2023-04-30T00:23:09;95873.47;;;11.44;71.77
20860;BME280;10590;48.154;11.514;2023-04-30T00:28:31;95874.56;;;11.34;71.94
20860;BME280;10590;48.154;11.514;2023-04-30T00:33:53;95875.47;;;11.21;72.21
20860;BME280;10590;48.154;11.514;2023-04-30T00:39:16;95880.41;;;10.79;73.56
20860;BME280;10590;48.154;11.514;2023-04-30T00:44:38;95882.94;;;10.84;73.60
20860;BME280;10590;48.154;11.514;2023-04-30T00:50:00;95876.16;;;10.78;73.92
20860;BME280;10590;48.154;11.514;2023-04-30T00:55:24;95888.00;;;11.12;72.61
20860;BME280;10590;48.154;11.514;2023-04-30T01:00:46;95882.81;;;11.07;73.08
20860;BME280;10590;48.154;11.514;2023-04-30T01:06:09;95890.09;;;10.67;74.43
20860;BME280;10590;48.154;11.514;2023-04-30T01:11:44;95893.47;;;10.90;73.38
20860;BME280;10590;48.154;11.514;2023-04-30T01:17:14;95901.19;;;11.00;72.61
20860;BME280;10590;48.154;11.514;2023-04-30T01:22:45;95891.00;;;11.10;71.95
20860;BME280;10590;48.154;11.514;2023-04-30T01:28:14;95894.28;;;10.99;72.74
20860;BME280;10590;48.154;11.514;2023-04-30T01:33:36;95909.91;;;10.74;74.69
20860;BME280;10590;48.154;11.514;2023-04-30T01:44:53;95899.09;;;10.88;73.62
20860;BME280;10590;48.154;11.514;2023-04-30T01:50:24;95901.13;;;10.82;73.49
20860;BME280;10590;48.154;11.514;2023-04-30T01:55:54;95907.81;;;10.63;74.09
20860;BME280;10590;48.154;11.514;2023-04-30T02:01:26;95899.38;;;10.78;73.68
20860;BME280;10590;48.154;11.514;2023-04-30T02:06:48;95909.56;;;10.67;74.17
20860;BME280;10590;48.154;11.514;2023-04-30T02:12:10;95908.34;;;10.82;73.55
20860;BME280;10590;48.154;11.514;2023-04-30T02:17:34;95900.50;;;10.85;73.64
20860;BME280;10590;48.154;11.514;2023-04-30T02:22:56;95908.31;;;10.73;73.33
20860;BME280;10590;48.154;11.514;2023-04-30T02:28:18;95902.34;;;10.68;73.77
20860;BME280;10590;48.154;11.514;2023-04-30T02:33:41;95907.28;;;10.52;74.33
20860;BME280;10590;48.154;11.514;2023-04-30T02:39:03;95917.22;;;10.60;73.37
20860;BME280;10590;48.154;11.514;2023-04-30T02:44:26;95916.47;;;10.68;73.82
20860;BME280;10590;48.154;11.514;2023-04-30T02:49:49;95922.34;;;10.48;74.46
20860;BME280;10590;48.154;11.514;2023-04-30T02:55:11;95930.28;;;10.70;73.81
20860;BME280;10590;48.154;11.514;2023-04-30T03:00:33;95925.28;;;10.77;73.28
20860;BME280;10590;48.154;11.514;2023-04-30T03:05:56;95902.31;;;10.59;74.41
20860;BME280;10590;48.154;11.514;2023-04-30T03:11:19;95925.66;;;10.53;74.92
20860;BME280;10590;48.154;11.514;2023-04-30T03:16:41;95917.50;;;10.50;74.61
20860;BME280;10590;48.154;11.514;2023-04-30T03:22:04;95913.47;;;10.39;74.06
20860;BME280;10590;48.154;11.514;2023-04-30T03:27:26;95908.09;;;10.30;74.55
20860;BME280;10590;48.154;11.514;2023-04-30T03:32:48;95910.13;;;9.80;75.97
20860;BME280;10590;48.154;11.514;2023-04-30T03:38:11;95909.25;;;9.93;75.84
20860;BME280;10590;48.154;11.514;2023-04-30T03:43:33;95896.28;;;10.00;74.93
20860;BME280;10590;48.154;11.514;2023-04-30T03:48:55;95902.22;;;9.97;74.87
20860;BME280;10590;48.154;11.514;2023-04-30T03:54:18;95894.53;;;9.96;75.27
20860;BME280;10590;48.154;11.514;2023-04-30T03:59:40;95891.34;;;9.85;75.44
20860;BME280;10590;48.154;11.514;2023-04-30T04:05:03;95886.72;;;9.99;75.51
20860;BME280;10590;48.154;11.514;2023-04-30T04:10:27;95891.22;;;9.68;75.83
20860;BME280;10590;48.154;11.514;2023-04-30T04:15:49;95895.69;;;9.81;75.46
20860;BME280;10590;48.154;11.514;2023-04-30T04:21:11;95898.47;;;9.76;76.14
20860;BME280;10590;48.154;11.514;2023-04-30T04:26:34;95911.94;;;9.93;75.05
20860;BME280;10590;48.154;11.514;2023-04-30T04:31:56;95917.72;;;10.17;74.17
20860;BME280;10590;48.154;11.514;2023-04-30T04:37:19;95923.38;;;9.94;74.68
20860;BME280;10590;48.154;11.514;2023-04-30T04:42:43;95936.81;;;10.11;74.20
20860;BME280;10590;48.154;11.514;2023-04-30T04:48:05;95936.47;;;10.04;74.01
20860;BME280;10590;48.154;11.514;2023-04-30T04:53:27;95934.47;;;9.87;74.20
20860;BME280;10590;48.154;11.514;2023-04-30T04:58:50;95934.81;;;9.94;73.97
20860;BME280;10590;48.154;11.514;2023-04-30T05:04:12;95931.78;;;10.09;73.66
20860;BME280;10590;48.154;11.514;2023-04-30T05:09:34;95934.22;;;9.97;73.71
20860;BME280;10590;48.154;11.514;2023-04-30T05:14:57;95937.56;;;10.03;73.51
20860;BME280;10590;48.154;11.514;2023-04-30T05:20:19;95952.53;;;10.35;73.26
20860;BME280;10590;48.154;11.514;2023-04-30T05:25:41;95949.16;;;10.20;73.11
20860;BME280;10590;48.154;11.514;2023-04-30T05:31:04;95951.50;;;10.22;72.24
20860;BME280;10590;48.154;11.514;2023-04-30T05:36:26;95956.06;;;10.21;72.37
20860;BME280;10590;48.154;11.514;2023-04-30T05:41:48;95959.56;;;10.31;72.15
20860;BME280;10590;48.154;11.514;2023-04-30T05:47:12;95956.94;;;10.17;72.31
20860;BME280;10590;48.154;11.514;2023-04-30T05:52:34;95950.25;;;10.42;71.56
20860;BME280;10590;48.154;11.514;2023-04-30T05:57:56;95956.16;;;10.39;71.53
20860;BME280;10590;48.154;11.514;2023-04-30T06:03:19;95947.16;;;10.26;72.22
20860;BME280;10590;48.154;11.514;2023-04-30T06:08:41;95954.19;;;10.44;71.06
20860;BME280;10590;48.154;11.514;2023-04-30T06:14:04;95946.47;;;10.43;71.34
20860;BME280;10590;48.154;11.514;2023-04-30T06:19:28;95947.88;;;11.11;68.98
20860;BME280;10590;48.154;11.514;2023-04-30T06:24:50;95938.44;;;11.13;68.65
20860;BME280;10590;48.154;11.514;2023-04-30T06:30:12;95940.91;;;11.49;67.64
20860;BME280;10590;48.154;11.514;2023-04-30T06:35:36;95948.50;;;11.82;66.07
20860;BME280;10590;48.154;11.514;2023-04-30T06:40:58;95941.53;;;13.35;63.19
20860;BME280;10590;48.154;11.514;2023-04-30T06:46:19;95939.50;;;11.69;65.48
20860;BME280;10590;48.154;11.514;2023-04-30T06:51:43;95943.56;;;12.53;63.18
20860;BME280;10590;48.154;11.514;2023-04-30T06:57:05;95948.28;;;13.03;62.41
20860;BME280;10590;48.154;11.514;2023-04-30T07:02:27;95946.25;;;14.42;56.62
20860;BME280;10590;48.154;11.514;2023-04-30T07:07:51;95939.28;;;15.47;54.17
20860;BME280;10590;48.154;11.514;2023-04-30T07:13:13;95936.63;;;15.23;54.76
20860;BME280;10590;48.154;11.514;2023-04-30T07:18:36;95931.53;;;16.50;52.24
20860;BME280;10590;48.154;11.514;2023-04-30T07:24:00;95935.78;;;17.77;48.69
20860;BME280;10590;48.154;11.514;2023-04-30T07:29:22;95934.41;;;16.58;50.75
20860;BME280;10590;48.154;11.514;2023-04-30T07:34:44;95930.13;;;15.36;52.88
20860;BME280;10590;48.154;11.514;2023-04-30T07:40:09;95937.97;;;15.05;54.48
20860;BME280;10590;48.154;11.514;2023-04-30T07:45:32;95925.66;;;16.05;53.68
20860;BME280;10590;48.154;11.514;2023-04-30T07:50:54;95920.63;;;15.63;53.56
20860;BME280;10590;48.154;11.514;2023-04-30T07:56:18;95917.81;;;16.00;52.37
20860;BME280;10590;48.154;11.514;2023-04-30T08:01:41;95917.47;;;14.88;56.59
20860;BME280;10590;48.154;11.514;2023-04-30T08:07:03;95922.78;;;15.85;53.92
20860;BME280;10590;48.154;11.514;2023-04-30T08:12:26;95929.34;;;14.99;56.39
20860;BME280;10590;48.154;11.514;2023-04-30T08:17:48;95927.22;;;15.05;56.49
20860;BME280;10590;48.154;11.514;2023-04-30T08:23:10;95927.63;;;14.04;59.10
20860;BME280;10590;48.154;11.514;2023-04-30T08:28:34;95937.06;;;13.10;62.21
20860;BME280;10590;48.154;11.514;2023-04-30T08:33:55;95929.19;;;16.65;51.68
20860;BME280;10590;48.154;11.514;2023-04-30T08:39:17;95928.44;;;17.11;49.64
20860;BME280;10590;48.154;11.514;2023-04-30T08:44:41;95923.56;;;13.77;59.02
20860;BME280;10590;48.154;11.514;2023-04-30T08:50:06;95934.06;;;14.45;58.91
20860;BME280;10590;48.154;11.514;2023-04-30T08:55:28;95927.66;;;14.94;56.29
20860;BME280;10590;48.154;11.514;2023-04-30T09:00:52;95930.66;;;19.37;45.19
20860;BME280;10590;48.154;11.514;2023-04-30T09:06:15;95930.72;;;14.27;55.47
20860;BME280;10590;48.154;11.514;2023-04-30T09:11:37;95933.84;;;13.96;56.95
20860;BME280;10590;48.154;11.514;2023-04-30T09:17:00;95929.72;;;14.52;55.86
20860;BME280;10590;48.154;11.514;2023-04-30T09:22:22;95931.50;;;14.48;56.00
20860;BME280;10590;48.154;11.514;2023-04-30T09:27:45;95929.94;;;14.59;56.00
20860;BME280;10590;48.154;11.514;2023-04-30T09:33:08;95928.22;;;14.88;53.71
20860;BME280;10590;48.154;11.514;2023-04-30T09:38:31;95935.53;;;14.54;55.65
20860;BME280;10590;48.154;11.514;2023-04-30T09:43:53;95924.25;;;14.28;55.99
20860;BME280;10590;48.154;11.514;2023-04-30T09:49:18;95928.63;;;13.99;54.92
20860;BME280;10590;48.154;11.514;2023-04-30T09:54:40;95932.22;;;14.03;56.61
20860;BME280;10590;48.154;11.514;2023-04-30T10:00:05;95928.00;;;14.15;56.70
20860;BME280;10590;48.154;11.514;2023-04-30T10:05:29;95929.06;;;14.01;61.08
20860;BME280;10590;48.154;11.514;2023-04-30T10:10:57;95939.13;;;13.42;58.59
20860;BME280;10590;48.154;11.514;2023-04-30T10:16:29;95917.75;;;14.29;56.86
20860;BME280;10590;48.154;11.514;2023-04-30T10:21:55;95929.13;;;14.47;56.52
20860;BME280;10590;48.154;11.514;2023-04-30T10:27:18;95912.31;;;15.68;53.14
20860;BME280;10590;48.154;11.514;2023-04-30T10:32:47;95907.97;;;15.91;52.09
20860;BME280;10590;48.154;11.514;2023-04-30T10:38:16;95909.84;;;15.39;53.17
20860;BME280;10590;48.154;11.514;2023-04-30T10:43:41;95891.00;;;14.65;53.52
20860;BME280;10590;48.154;11.514;2023-04-30T10:49:03;95888.56;;;15.34;52.09
20860;BME280;10590;48.154;11.514;2023-04-30T10:54:27;95894.06;;;15.13;50.56
20860;BME280;10590;48.154;11.514;2023-04-30T10:59:53;95880.63;;;15.89;49.78
20860;BME280;10590;48.154;11.514;2023-04-30T11:05:35;95884.69;;;16.55;46.48
20860;BME280;10590;48.154;11.514;2023-04-30T11:10:59;95881.25;;;16.70;46.73
20860;BME280;10590;48.154;11.514;2023-04-30T11:16:28;95864.59;;;17.66;46.48
20860;BME280;10590;48.154;11.514;2023-04-30T11:22:14;95868.56;;;17.72;45.35
20860;BME280;10590;48.154;11.514;2023-04-30T11:27:41;95862.75;;;17.70;45.43
20860;BME280;10590;48.154;11.514;2023-04-30T11:33:04;95858.22;;;20.17;38.28
20860;BME280;10590;48.154;11.514;2023-04-30T11:38:28;95862.06;;;17.23;43.37
20860;BME280;10590;48.154;11.514;2023-04-30T11:43:55;95864.97;;;17.49;42.51
20860;BME280;10590;48.154;11.514;2023-04-30T11:49:16;95866.38;;;16.92;43.42
20860;BME280;10590;48.154;11.514;2023-04-30T11:54:38;95860.56;;;16.74;45.05
20860;BME280;10590;48.154;11.514;2023-04-30T12:00:11;95855.53;;;15.85;46.71
20860;BME280;10590;48.154;11.514;2023-04-30T12:05:33;95844.56;;;16.22;47.46
20860;BME280;10590;48.154;11.514;2023-04-30T12:10:55;95851.41;;;16.04;47.77
20860;BME280;10590;48.154;11.514;2023-04-30T12:16:18;95850.66;;;16.19;47.80
20860;BME280;10590;48.154;11.514;2023-04-30T12:21:41;95858.66;;;16.31;48.11
20860;BME280;10590;48.154;11.514;2023-04-30T12:27:05;95848.25;;;16.45;48.29
20860;BME280;10590;48.154;11.514;2023-04-30T12:32:29;95852.63;;;16.06;48.67
20860;BME280;10590;48.154;11.514;2023-04-30T12:38:01;95850.44;;;15.44;49.58
20860;BME280;10590;48.154;11.514;2023-04-30T12:43:23;95841.31;;;16.60;48.06
20860;BME280;10590;48.154;11.514;2023-04-30T12:48:46;95837.72;;;17.19;46.05
20860;BME280;10590;48.154;11.514;2023-04-30T12:54:08;95824.09;;;17.31;45.41
20860;BME280;10590;48.154;11.514;2023-04-30T12:59:32;95829.31;;;18.36;43.15
20860;BME280;10590;48.154;11.514;2023-04-30T13:04:56;95815.47;;;20.00;39.16
20860;BME280;10590;48.154;11.514;2023-04-30T13:10:18;95802.09;;;18.49;42.15
20860;BME280;10590;48.154;11.514;2023-04-30T13:15:41;95798.34;;;20.70;38.35
20860;BME280;10590;48.154;11.514;2023-04-30T13:21:04;95793.00;;;19.96;37.87
20860;BME280;10590;48.154;11.514;2023-04-30T13:26:26;95793.97;;;17.64;43.16
20860;BME280;10590;48.154;11.514;2023-04-30T13:31:49;95783.09;;;17.99;43.02
20860;BME280;10590;48.154;11.514;2023-04-30T13:37:12;95780.69;;;18.17;42.02
20860;BME280;10590;48.154;11.514;2023-04-30T13:42:36;95773.25;;;16.32;45.17
20860;BME280;10590;48.154;11.514;2023-04-30T13:47:58;95765.72;;;17.58;42.16
20860;BME280;10590;48.154;11.514;2023-04-30T13:53:22;95771.97;;;17.43;42.47
20860;BME280;10590;48.154;11.514;2023-04-30T13:58:44;95764.28;;;17.64;42.23
20860;BME280;10590;48.154;11.514;2023-04-30T14:04:07;95770.34;;;16.68;43.46
20860;BME280;10590;48.154;11.514;2023-04-30T14:09:30;95761.47;;;16.68;43.43
20860;BME280;10590;48.154;11.514;2023-04-30T14:14:52;95755.38;;;16.71;42.91
20860;BME280;10590;48.154;11.514;2023-04-30T14:20:13;95751.28;;;16.77;43.38
20860;BME280;10590;48.154;11.514;2023-04-30T14:25:37;95739.72;;;16.76;43.58
20860;BME280;10590;48.154;11.514;2023-04-30T14:30:59;95732.44;;;16.96;42.99
20860;BME280;10590;48.154;11.514;2023-04-30T14:36:21;95735.09;;;17.89;43.05
20860;BME280;10590;48.154;11.514;2023-04-30T14:41:44;95734.78;;;16.00;45.56
20860;BME280;10590;48.154;11.514;2023-04-30T14:47:06;95720.16;;;16.64;44.16
20860;BME280;10590;48.154;11.514;2023-04-30T14:52:28;95725.06;;;16.11;45.40
20860;BME280;10590;48.154;11.514;2023-04-30T14:57:51;95717.41;;;16.13;45.60
20860;BME280;10590;48.154;11.514;2023-04-30T15:03:13;95727.31;;;16.72;44.37
20860;BME280;10590;48.154;11.514;2023-04-30T15:08:36;95734.53;;;16.36;44.70
20860;BME280;10590;48.154;11.514;2023-04-30T15:14:01;95735.03;;;16.73;44.20
20860;BME280;10590;48.154;11.514;2023-04-30T15:19:23;95723.53;;;18.34;42.04
20860;BME280;10590;48.154;11.514;2023-04-30T15:24:45;95719.47;;;17.79;41.54
20860;BME280;10590;48.154;11.514;2023-04-30T15:30:09;95721.56;;;16.73;44.55
20860;BME280;10590;48.154;11.514;2023-04-30T15:35:31;95716.72;;;17.56;42.14
20860;BME280;10590;48.154;11.514;2023-04-30T15:40:53;95709.94;;;16.53;44.32
20860;BME280;10590;48.154;11.514;2023-04-30T15:46:16;95714.50;;;15.58;47.05
20860;BME280;10590;48.154;11.514;2023-04-30T15:51:38;95712.13;;;16.48;44.75
20860;BME280;10590;48.154;11.514;2023-04-30T15:57:00;95709.19;;;16.88;44.92
20860;BME280;10590;48.154;11.514;2023-04-30T16:02:25;95708.28;;;15.70;46.15
20860;BME280;10590;48.154;11.514;2023-04-30T16:07:47;95711.25;;;15.81;46.23
20860;BME280;10590;48.154;11.514;2023-04-30T16:13:09;95710.47;;;15.80;45.92
20860;BME280;10590;48.154;11.514;2023-04-30T16:18:33;95707.09;;;15.55;46.46
20860;BME280;10590;48.154;11.514;2023-04-30T16:23:55;95712.91;;;15.85;46.37
20860;BME280;10590;48.154;11.514;2023-04-30T16:29:17;95698.94;;;15.96;47.36
20860;BME280;10590;48.154;11.514;2023-04-30T16:34:40;95695.41;;;15.36;47.35
20860;BME280;10590;48.154;11.514;2023-04-30T16:40:02;95691.56;;;15.21;46.49
20860;BME280;10590;48.154;11.514;2023-04-30T16:45:26;95698.25;;;14.99;47.11
20860;BME280;10590;48.154;11.514;2023-04-30T16:50:51;95687.97;;;14.89;47.54
20860;BME280;10590;48.154;11.514;2023-04-30T16:56:13;95692.47;;;14.85;47.79
20860;BME280;10590;48.154;11.514;2023-04-30T17:01:34;95698.66;;;14.61;48.49
20860;BME280;10590;48.154;11.514;2023-04-30T17:06:58;95696.31;;;14.59;48.83
20860;BME280;10590;48.154;11.514;2023-04-30T17:12:20;95697.63;;;14.78;49.17
20860;BME280;10590;48.154;11.514;2023-04-30T17:17:44;95695.84;;;14.82;48.41
20860;BME280;10590;48.154;11.514;2023-04-30T17:23:08;95695.88;;;14.57;49.21
20860;BME280;10590;48.154;11.514;2023-04-30T17:28:29;95692.75;;;14.43;48.22
20860;BME280;10590;48.154;11.514;2023-04-30T17:33:52;95683.69;;;14.23;48.06
20860;BME280;10590;48.154;11.514;2023-04-30T17:39:15;95695.31;;;14.27;48.15
20860;BME280;10590;48.154;11.514;2023-04-30T17:44:38;95692.75;;;14.19;47.68
20860;BME280;10590;48.154;11.514;2023-04-30T17:50:00;95691.50;;;14.04;48.78
20860;BME280;10590;48.154;11.514;2023-04-30T17:55:25;95689.00;;;13.75;50.59
20860;BME280;10590;48.154;11.514;2023-04-30T18:00:47;95696.34;;;13.65;51.25
20860;BME280;10590;48.154;11.514;2023-04-30T18:06:09;95694.19;;;13.47;52.16
20860;BME280;10590;48.154;11.514;2023-04-30T18:11:32;95695.84;;;13.39;52.62
20860;BME280;10590;48.154;11.514;2023-04-30T18:16:54;95697.28;;;13.36;52.78
20860;BME280;10590;48.154;11.514;2023-04-30T18:22:16;95695.94;;;13.30;52.98
20860;BME280;10590;48.154;11.514;2023-04-30T18:27:40;95691.22;;;13.27;53.14
20860;BME280;10590;48.154;11.514;2023-04-30T18:33:05;95695.75;;;13.15;54.23
20860;BME280;10590;48.154;11.514;2023-04-30T18:38:28;95703.31;;;13.13;54.08
20860;BME280;10590;48.154;11.514;2023-04-30T18:43:56;95700.44;;;12.97;54.57
20860;BME280;10590;48.154;11.514;2023-04-30T18:49:18;95698.34;;;12.82;54.14
20860;BME280;10590;48.154;11.514;2023-04-30T18:54:40;95697.56;;;12.60;54.39
20860;BME280;10590;48.154;11.514;2023-04-30T19:00:05;95709.25;;;12.76;54.13
20860;BME280;10590;48.154;11.514;2023-04-30T19:05:27;95711.22;;;12.67;54.13
20860;BME280;10590;48.154;11.514;2023-04-30T19:10:49;95704.75;;;12.68;54.00
20860;BME280;10590;48.154;11.514;2023-04-30T19:16:14;95713.16;;;12.58;54.08
20860;BME280;10590;48.154;11.514;2023-04-30T19:21:36;95711.38;;;12.41;54.78
20860;BME280;10590;48.154;11.514;2023-04-30T19:26:58;95717.06;;;12.40;54.98
20860;BME280;10590;48.154;11.514;2023-04-30T19:32:24;95710.28;;;12.42;54.90
20860;BME280;10590;48.154;11.514;2023-04-30T19:37:47;95713.78;;;12.34;54.73
20860;BME280;10590;48.154;11.514;2023-04-30T19:43:10;95717.44;;;12.30;55.06
20860;BME280;10590;48.154;11.514;2023-04-30T19:48:33;95724.88;;;12.24;55.32
20860;BME280;10590;48.154;11.514;2023-04-30T19:53:55;95716.25;;;12.10;55.82
20860;BME280;10590;48.154;11.514;2023-04-30T19:59:18;95730.13;;;12.03;55.73
20860;BME280;10590;48.154;11.514;2023-04-30T20:04:42;95720.31;;;11.69;56.35
20860;BME280;10590;48.154;11.514;2023-04-30T20:10:04;95706.31;;;11.81;56.15
20860;BME280;10590;48.154;11.514;2023-04-30T20:15:29;95711.34;;;11.74;56.38
20860;BME280;10590;48.154;11.514;2023-04-30T20:20:55;95716.53;;;11.79;56.20
20860;BME280;10590;48.154;11.514;2023-04-30T20:26:17;95717.00;;;11.81;56.39
20860;BME280;10590;48.154;11.514;2023-04-30T20:31:40;95709.28;;;11.71;56.15
20860;BME280;10590;48.154;11.514;2023-04-30T20:37:04;95700.03;;;11.68;56.26
20860;BME280;10590;48.154;11.514;2023-04-30T20:42:25;95699.13;;;11.56;56.37
20860;BME280;10590;48.154;11.514;2023-04-30T20:47:47;95697.28;;;11.39;57.21
20860;BME280;10590;48.154;11.514;2023-04-30T20:53:11;95688.91;;;11.58;56.66
20860;BME280;10590;48.154;11.514;2023-04-30T20:58:35;95692.88;;;11.43;57.06
20860;BME280;10590;48.154;11.514;2023-04-30T21:03:57;95698.25;;;11.34;57.10
20860;BME280;10590;48.154;11.514;2023-04-30T21:09:21;95686.31;;;10.97;58.05
20860;BME280;10590;48.154;11.514;2023-04-30T21:14:43;95683.00;;;11.17;58.86
20860;BME280;10590;48.154;11.514;2023-04-30T21:20:06;95686.91;;;11.20;57.63
20860;BME280;10590;48.154;11.514;2023-04-30T21:25:30;95675.31;;;11.07;57.97
20860;BME280;10590;48.154;11.514;2023-04-30T21:30:52;95669.69;;;10.92;57.72
20860;BME280;10590;48.154;11.514;2023-04-30T21:36:14;95671.88;;;10.90;58.06
20860;BME280;10590;48.154;11.514;2023-04-30T21:41:37;95672.19;;;10.79;58.48
20860;BME280;10590;48.154;11.514;2023-04-30T21:46:59;95669.69;;;10.74;58.40
20860;BME280;10590;48.154;11.514;2023-04-30T21:52:21;95666.88;;;10.71;58.41
20860;BME280;10590;48.154;11.514;2023-04-30T21:57:44;95669.53;;;10.62;58.35
20860;BME280;10590;48.154;11.514;2023-04-30T22:03:07;95665.13;;;10.40;58.75
20860;BME280;10590;48.154;11.514;2023-04-30T22:08:29;95657.28;;;10.70;58.30
20860;BME280;10590;48.154;11.514;2023-04-30T22:13:52;95651.47;;;10.68;58.49
20860;BME280;10590;48.154;11.514;2023-04-30T22:19:14;95642.22;;;10.74;58.08
20860;BME280;10590;48.154;11.514;2023-04-30T22:24:36;95636.72;;;10.62;58.61
20860;BME280;10590;48.154;11.514;2023-04-30T22:30:00;95638.00;;;10.56;58.63
20860;BME280;10590;48.154;11.514;2023-04-30T22:35:22;95635.78;;;10.58;58.63
20860;BME280;10590;48.154;11.514;2023-04-30T22:40:44;95631.38;;;10.36;58.95
20860;BME280;10590;48.154;11.514;2023-04-30T22:46:08;95627.94;;;10.44;58.31
20860;BME280;10590;48.154;11.514;2023-04-30T22:51:30;95623.03;;;10.29;59.13
20860;BME280;10590;48.154;11.514;2023-04-30T22:56:54;95616.78;;;10.33;59.08
20860;BME280;10590;48.154;11.514;2023-04-30T23:02:18;95610.19;;;10.31;59.01
20860;BME280;10590;48.154;11.514;2023-04-30T23:07:40;95609.50;;;10.16;59.17
20860;BME280;10590;48.154;11.514;2023-04-30T23:13:02;95609.72;;;10.29;59.20
20860;BME280;10590;48.154;11.514;2023-04-30T23:18:27;95601.19;;;10.18;59.56
20860;BME280;10590;48.154;11.514;2023-04-30T23:23:49;95598.81;;;9.90;59.92
20860;BME280;10590;48.154;11.514;2023-04-30T23:29:10;95595.84;;;10.01;59.89
20860;BME280;10590;48.154;11.514;2023-04-30T23:34:34;95577.34;;;10.13;59.55
20860;BME280;10590;48.154;11.514;2023-04-30T23:39:56;95585.81;;;10.06;60.34
20860;BME280;10590;48.154;11.514;2023-04-30T23:45:19;95582.66;;;9.87;60.49
20860;BME280;10590;48.154;11.514;2023-04-30T23:50:43;95580.00;;;9.96;60.15
20860;BME280;10590;48.154;11.514;2023-04-30T23:56:06;95577.50;;;9.90;60.31
